sensor_id;sensor_type;location;lat;lon;timestamp;P1;durP1;ratioP1;P2;durP2;ratioP2
63370;SDS011;49504;48.336;14.472;2023-04-15T00:01:35;1.83;;;0.50;;
63370;SDS011;49504;48.336;14.472;2023-04-15T00:04:58;2.15;;;0.50;;
63370;SDS011;49504;48.336;14.472;2023-04-15T00:08:19;1.15;;;0.40;;
63370;SDS011;49504;48.336;14.472;2023-04-15T00:11:40;1.52;;;0.50;;
63370;SDS011;49504;48.336;14.472;2023-04-15T00:15:01;2.35;;;0.70;;
63370;SDS011;49504;48.336;14.472;2023-04-15T00:18:23;2.97;;;0.75;;
63370;SDS011;49504;48.336;14.472;2023-04-15T00:21:46;1.08;;;0.40;;
63370;SDS011;49504;48.336;14.472;2023-04-15T00:25:07;1.45;;;0.50;;
63370;SDS011;49504;48.336;14.472;2023-04-15T00:28:29;1.73;;;0.63;;
63370;SDS011;49504;48.336;14.472;2023-04-15T00:31:50;1.77;;;0.50;;
63370;SDS011;49504;48.336;14.472;2023-04-15T00:35:12;2.25;;;0.40;;
63370;SDS011;49504;48.336;14.472;2023-04-15T00:38:35;1.63;;;0.70;;
63370;SDS011;49504;48.336;14.472;2023-04-15T00:41:57;1.63;;;0.50;;
63370;SDS011;49504;48.336;14.472;2023-04-15T00:45:18;1.52;;;0.45;;
63370;SDS011;49504;48.336;14.472;2023-04-15T00:48:40;3.50;;;0.68;;
63370;SDS011;49504;48.336;14.472;2023-04-15T00:52:02;2.00;;;0.65;;
63370;SDS011;49504;48.336;14.472;2023-04-15T00:55:25;2.20;;;0.55;;
63370;SDS011;49504;48.336;14.472;2023-04-15T00:58:46;1.65;;;0.50;;
63370;SDS011;49504;48.336;14.472;2023-04-15T01:02:07;2.00;;;0.52;;
63370;SDS011;49504;48.336;14.472;2023-04-15T01:05:29;1.65;;;0.60;;
63370;SDS011;49504;48.336;14.472;2023-04-15T01:08:50;1.83;;;0.55;;
63370;SDS011;49504;48.336;14.472;2023-04-15T01:12:13;1.52;;;0.50;;
63370;SDS011;49504;48.336;14.472;2023-04-15T01:16:07;1.52;;;0.40;;
63370;SDS011;49504;48.336;14.472;2023-04-15T01:19:28;1.58;;;0.47;;
63370;SDS011;49504;48.336;14.472;2023-04-15T01:22:50;1.65;;;0.45;;
63370;SDS011;49504;48.336;14.472;2023-04-15T01:26:13;1.48;;;0.40;;
63370;SDS011;49504;48.336;14.472;2023-04-15T01:29:36;1.70;;;0.50;;
63370;SDS011;49504;48.336;14.472;2023-04-15T01:32:59;1.58;;;0.50;;
63370;SDS011;49504;48.336;14.472;2023-04-15T01:36:20;1.63;;;0.50;;
63370;SDS011;49504;48.336;14.472;2023-04-15T01:39:41;1.45;;;0.40;;
63370;SDS011;49504;48.336;14.472;2023-04-15T01:43:03;1.20;;;0.35;;
63370;SDS011;49504;48.336;14.472;2023-04-15T01:46:25;1.23;;;0.40;;
63370;SDS011;49504;48.336;14.472;2023-04-15T01:49:47;1.45;;;0.40;;
63370;SDS011;49504;48.336;14.472;2023-04-15T01:53:08;1.70;;;0.50;;
63370;SDS011;49504;48.336;14.472;2023-04-15T01:56:29;1.85;;;0.40;;
63370;SDS011;49504;48.336;14.472;2023-04-15T01:59:52;1.38;;;0.38;;
63370;SDS011;49504;48.336;14.472;2023-04-15T02:03:13;1.73;;;0.50;;
63370;SDS011;49504;48.336;14.472;2023-04-15T02:06:34;2.22;;;0.70;;
63370;SDS011;49504;48.336;14.472;2023-04-15T02:09:55;2.25;;;0.60;;
63370;SDS011;49504;48.336;14.472;2023-04-15T02:13:16;1.70;;;0.38;;
63370;SDS011;49504;48.336;14.472;2023-04-15T02:16:38;1.50;;;0.40;;
63370;SDS011;49504;48.336;14.472;2023-04-15T02:20:01;1.15;;;0.35;;
63370;SDS011;49504;48.336;14.472;2023-04-15T02:23:22;1.60;;;0.43;;
63370;SDS011;49504;48.336;14.472;2023-04-15T02:26:43;1.98;;;0.50;;
63370;SDS011;49504;48.336;14.472;2023-04-15T02:30:05;1.65;;;0.40;;
63370;SDS011;49504;48.336;14.472;2023-04-15T02:33:29;1.40;;;0.40;;
63370;SDS011;49504;48.336;14.472;2023-04-15T02:36:51;1.83;;;0.70;;
63370;SDS011;49504;48.336;14.472;2023-04-15T02:40:12;1.38;;;0.40;;
63370;SDS011;49504;48.336;14.472;2023-04-15T02:43:34;1.30;;;0.30;;
63370;SDS011;49504;48.336;14.472;2023-04-15T02:46:55;1.35;;;0.40;;
63370;SDS011;49504;48.336;14.472;2023-04-15T02:50:18;0.82;;;0.30;;
63370;SDS011;49504;48.336;14.472;2023-04-15T02:54:30;1.35;;;0.32;;
63370;SDS011;49504;48.336;14.472;2023-04-15T02:57:51;1.55;;;0.40;;
63370;SDS011;49504;48.336;14.472;2023-04-15T03:01:12;1.85;;;0.40;;
63370;SDS011;49504;48.336;14.472;2023-04-15T03:04:34;1.13;;;0.40;;
63370;SDS011;49504;48.336;14.472;2023-04-15T03:07:55;1.17;;;0.30;;
63370;SDS011;49504;48.336;14.472;2023-04-15T03:11:18;1.60;;;0.40;;
63370;SDS011;49504;48.336;14.472;2023-04-15T03:14:39;1.55;;;0.40;;
63370;SDS011;49504;48.336;14.472;2023-04-15T03:18:00;0.77;;;0.28;;
63370;SDS011;49504;48.336;14.472;2023-04-15T03:21:21;1.83;;;0.40;;
63370;SDS011;49504;48.336;14.472;2023-04-15T03:24:42;1.27;;;0.40;;
63370;SDS011;49504;48.336;14.472;2023-04-15T03:28:06;1.05;;;0.30;;
63370;SDS011;49504;48.336;14.472;2023-04-15T03:31:27;1.48;;;0.40;;
63370;SDS011;49504;48.336;14.472;2023-04-15T03:34:48;1.20;;;0.30;;
63370;SDS011;49504;48.336;14.472;2023-04-15T03:38:09;1.42;;;0.30;;
63370;SDS011;49504;48.336;14.472;2023-04-15T03:41:30;0.95;;;0.28;;
63370;SDS011;49504;48.336;14.472;2023-04-15T03:44:53;0.88;;;0.35;;
63370;SDS011;49504;48.336;14.472;2023-04-15T03:48:14;1.50;;;0.45;;
63370;SDS011;49504;48.336;14.472;2023-04-15T03:51:35;1.30;;;0.30;;
63370;SDS011;49504;48.336;14.472;2023-04-15T03:54:56;1.48;;;0.40;;
63370;SDS011;49504;48.336;14.472;2023-04-15T03:58:17;0.70;;;0.28;;
63370;SDS011;49504;48.336;14.472;2023-04-15T04:01:39;1.23;;;0.30;;
63370;SDS011;49504;48.336;14.472;2023-04-15T04:05:01;1.25;;;0.30;;
63370;SDS011;49504;48.336;14.472;2023-04-15T04:08:22;0.85;;;0.30;;
63370;SDS011;49504;48.336;14.472;2023-04-15T04:11:43;0.90;;;0.25;;
63370;SDS011;49504;48.336;14.472;2023-04-15T04:15:04;0.68;;;0.20;;
63370;SDS011;49504;48.336;14.472;2023-04-15T04:18:28;0.65;;;0.20;;
63370;SDS011;49504;48.336;14.472;2023-04-15T04:21:49;1.02;;;0.35;;
63370;SDS011;49504;48.336;14.472;2023-04-15T04:25:11;0.98;;;0.25;;
63370;SDS011;49504;48.336;14.472;2023-04-15T04:28:32;1.10;;;0.28;;
63370;SDS011;49504;48.336;14.472;2023-04-15T04:31:53;4.13;;;0.80;;
63370;SDS011;49504;48.336;14.472;2023-04-15T04:35:32;1.02;;;0.30;;
63370;SDS011;49504;48.336;14.472;2023-04-15T04:39:43;0.93;;;0.28;;
63370;SDS011;49504;48.336;14.472;2023-04-15T04:43:04;0.90;;;0.20;;
63370;SDS011;49504;48.336;14.472;2023-04-15T04:46:26;0.63;;;0.20;;
63370;SDS011;49504;48.336;14.472;2023-04-15T04:49:48;0.95;;;0.20;;
63370;SDS011;49504;48.336;14.472;2023-04-15T04:53:09;1.45;;;0.38;;
63370;SDS011;49504;48.336;14.472;2023-04-15T04:56:31;1.15;;;0.20;;
63370;SDS011;49504;48.336;14.472;2023-04-15T04:59:52;1.02;;;0.30;;
63370;SDS011;49504;48.336;14.472;2023-04-15T05:03:14;1.33;;;0.28;;
63370;SDS011;49504;48.336;14.472;2023-04-15T05:06:35;0.90;;;0.30;;
63370;SDS011;49504;48.336;14.472;2023-04-15T05:09:56;2.15;;;0.40;;
63370;SDS011;49504;48.336;14.472;2023-04-15T05:13:19;1.20;;;0.30;;
63370;SDS011;49504;48.336;14.472;2023-04-15T05:16:40;1.08;;;0.20;;
63370;SDS011;49504;48.336;14.472;2023-04-15T05:20:01;0.90;;;0.35;;
63370;SDS011;49504;48.336;14.472;2023-04-15T05:23:23;0.80;;;0.20;;
63370;SDS011;49504;48.336;14.472;2023-04-15T05:26:44;1.00;;;0.35;;
63370;SDS011;49504;48.336;14.472;2023-04-15T05:30:07;1.08;;;0.25;;
63370;SDS011;49504;48.336;14.472;2023-04-15T05:33:28;1.92;;;0.60;;
63370;SDS011;49504;48.336;14.472;2023-04-15T05:36:50;1.60;;;0.43;;
63370;SDS011;49504;48.336;14.472;2023-04-15T05:40:11;1.02;;;0.30;;
63370;SDS011;49504;48.336;14.472;2023-04-15T05:43:32;1.23;;;0.40;;
63370;SDS011;49504;48.336;14.472;2023-04-15T05:46:55;1.95;;;0.55;;
63370;SDS011;49504;48.336;14.472;2023-04-15T05:50:17;1.27;;;0.32;;
63370;SDS011;49504;48.336;14.472;2023-04-15T05:53:38;1.30;;;0.30;;
63370;SDS011;49504;48.336;14.472;2023-04-15T05:57:00;1.35;;;0.40;;
63370;SDS011;49504;48.336;14.472;2023-04-15T06:00:21;1.45;;;0.30;;
63370;SDS011;49504;48.336;14.472;2023-04-15T06:06:13;1.60;;;0.43;;
63370;SDS011;49504;48.336;14.472;2023-04-15T06:09:34;1.13;;;0.30;;
63370;SDS011;49504;48.336;14.472;2023-04-15T06:12:55;1.50;;;0.32;;
63370;SDS011;49504;48.336;14.472;2023-04-15T06:16:16;1.63;;;0.47;;
63370;SDS011;49504;48.336;14.472;2023-04-15T06:19:38;1.27;;;0.30;;
63370;SDS011;49504;48.336;14.472;2023-04-15T06:23:01;2.10;;;0.30;;
63370;SDS011;49504;48.336;14.472;2023-04-15T06:26:22;1.25;;;0.30;;
63370;SDS011;49504;48.336;14.472;2023-04-15T06:29:44;1.30;;;0.63;;
63370;SDS011;49504;48.336;14.472;2023-04-15T06:33:06;4.97;;;0.40;;
63370;SDS011;49504;48.336;14.472;2023-04-15T06:36:27;1.85;;;0.40;;
63370;SDS011;49504;48.336;14.472;2023-04-15T06:39:50;1.75;;;0.38;;
63370;SDS011;49504;48.336;14.472;2023-04-15T06:43:12;1.55;;;0.45;;
63370;SDS011;49504;48.336;14.472;2023-04-15T06:46:33;1.00;;;0.30;;
63370;SDS011;49504;48.336;14.472;2023-04-15T06:49:54;1.05;;;0.30;;
63370;SDS011;49504;48.336;14.472;2023-04-15T06:53:15;2.42;;;0.38;;
63370;SDS011;49504;48.336;14.472;2023-04-15T06:56:38;1.35;;;0.30;;
63370;SDS011;49504;48.336;14.472;2023-04-15T06:59:59;0.98;;;0.30;;
63370;SDS011;49504;48.336;14.472;2023-04-15T07:03:20;1.23;;;0.32;;
63370;SDS011;49504;48.336;14.472;2023-04-15T07:06:41;2.60;;;0.40;;
63370;SDS011;49504;48.336;14.472;2023-04-15T07:12:42;2.03;;;0.60;;
63370;SDS011;49504;48.336;14.472;2023-04-15T07:16:04;1.83;;;0.38;;
63370;SDS011;49504;48.336;14.472;2023-04-15T07:21:58;1.20;;;0.30;;
63370;SDS011;49504;48.336;14.472;2023-04-15T07:25:20;2.20;;;0.50;;
63370;SDS011;49504;48.336;14.472;2023-04-15T07:28:41;1.70;;;0.35;;
63370;SDS011;49504;48.336;14.472;2023-04-15T07:32:03;1.73;;;0.40;;
63370;SDS011;49504;48.336;14.472;2023-04-15T07:35:25;3.25;;;0.60;;
63370;SDS011;49504;48.336;14.472;2023-04-15T07:38:47;1.38;;;0.40;;
63370;SDS011;49504;48.336;14.472;2023-04-15T07:42:09;1.92;;;0.50;;
63370;SDS011;49504;48.336;14.472;2023-04-15T07:46:42;1.90;;;0.50;;
63370;SDS011;49504;48.336;14.472;2023-04-15T07:50:03;1.45;;;0.30;;
63370;SDS011;49504;48.336;14.472;2023-04-15T07:53:25;2.60;;;0.35;;
63370;SDS011;49504;48.336;14.472;2023-04-15T07:56:46;1.40;;;0.40;;
63370;SDS011;49504;48.336;14.472;2023-04-15T08:00:08;2.05;;;0.30;;
63370;SDS011;49504;48.336;14.472;2023-04-15T08:03:44;3.55;;;0.60;;
63370;SDS011;49504;48.336;14.472;2023-04-15T08:07:05;1.88;;;0.40;;
63370;SDS011;49504;48.336;14.472;2023-04-15T08:10:27;1.75;;;0.40;;
63370;SDS011;49504;48.336;14.472;2023-04-15T08:13:49;2.15;;;0.63;;
63370;SDS011;49504;48.336;14.472;2023-04-15T08:17:11;6.05;;;0.90;;
63370;SDS011;49504;48.336;14.472;2023-04-15T08:22:30;1.23;;;0.30;;
63370;SDS011;49504;48.336;14.472;2023-04-15T08:25:51;4.07;;;0.63;;
63370;SDS011;49504;48.336;14.472;2023-04-15T08:29:12;2.45;;;0.60;;
63370;SDS011;49504;48.336;14.472;2023-04-15T08:32:34;1.70;;;0.40;;
63370;SDS011;49504;48.336;14.472;2023-04-15T08:35:55;0.90;;;0.20;;
63370;SDS011;49504;48.336;14.472;2023-04-15T08:39:17;2.13;;;0.70;;
63370;SDS011;49504;48.336;14.472;2023-04-15T08:42:40;3.00;;;0.45;;
63370;SDS011;49504;48.336;14.472;2023-04-15T08:46:04;1.25;;;0.32;;
63370;SDS011;49504;48.336;14.472;2023-04-15T08:53:06;2.17;;;0.40;;
63370;SDS011;49504;48.336;14.472;2023-04-15T08:56:27;2.75;;;0.65;;
63370;SDS011;49504;48.336;14.472;2023-04-15T09:01:50;1.02;;;0.40;;
63370;SDS011;49504;48.336;14.472;2023-04-15T09:05:12;2.78;;;0.63;;
63370;SDS011;49504;48.336;14.472;2023-04-15T09:08:33;2.53;;;0.70;;
63370;SDS011;49504;48.336;14.472;2023-04-15T09:11:54;2.78;;;0.60;;
63370;SDS011;49504;48.336;14.472;2023-04-15T09:15:15;2.45;;;0.52;;
63370;SDS011;49504;48.336;14.472;2023-04-15T09:18:38;3.10;;;0.70;;
63370;SDS011;49504;48.336;14.472;2023-04-15T09:21:59;1.75;;;0.65;;
63370;SDS011;49504;48.336;14.472;2023-04-15T09:25:25;4.05;;;0.60;;
63370;SDS011;49504;48.336;14.472;2023-04-15T09:28:48;2.42;;;0.50;;
63370;SDS011;49504;48.336;14.472;2023-04-15T09:32:09;1.85;;;0.50;;
63370;SDS011;49504;48.336;14.472;2023-04-15T09:35:33;2.47;;;0.65;;
63370;SDS011;49504;48.336;14.472;2023-04-15T09:38:55;2.35;;;0.60;;
63370;SDS011;49504;48.336;14.472;2023-04-15T09:42:17;2.38;;;0.80;;
63370;SDS011;49504;48.336;14.472;2023-04-15T09:45:38;2.40;;;0.68;;
63370;SDS011;49504;48.336;14.472;2023-04-15T09:49:08;2.17;;;0.50;;
63370;SDS011;49504;48.336;14.472;2023-04-15T09:52:32;1.95;;;0.60;;
63370;SDS011;49504;48.336;14.472;2023-04-15T09:55:54;1.98;;;0.52;;
63370;SDS011;49504;48.336;14.472;2023-04-15T09:59:17;1.65;;;0.50;;
63370;SDS011;49504;48.336;14.472;2023-04-15T10:05:32;1.92;;;0.50;;
63370;SDS011;49504;48.336;14.472;2023-04-15T10:08:54;1.77;;;0.60;;
63370;SDS011;49504;48.336;14.472;2023-04-15T10:12:16;2.90;;;0.80;;
63370;SDS011;49504;48.336;14.472;2023-04-15T10:15:39;2.72;;;0.63;;
63370;SDS011;49504;48.336;14.472;2023-04-15T10:19:04;1.60;;;0.50;;
63370;SDS011;49504;48.336;14.472;2023-04-15T10:22:28;1.83;;;0.50;;
63370;SDS011;49504;48.336;14.472;2023-04-15T10:27:20;2.40;;;0.93;;
63370;SDS011;49504;48.336;14.472;2023-04-15T10:30:42;2.55;;;0.80;;
63370;SDS011;49504;48.336;14.472;2023-04-15T10:34:03;2.67;;;0.70;;
63370;SDS011;49504;48.336;14.472;2023-04-15T10:38:34;2.33;;;0.60;;
63370;SDS011;49504;48.336;14.472;2023-04-15T10:42:04;2.47;;;0.50;;
63370;SDS011;49504;48.336;14.472;2023-04-15T10:45:33;1.75;;;0.50;;
63370;SDS011;49504;48.336;14.472;2023-04-15T10:52:31;1.95;;;0.63;;
63370;SDS011;49504;48.336;14.472;2023-04-15T10:55:52;1.38;;;0.45;;
63370;SDS011;49504;48.336;14.472;2023-04-15T10:59:13;2.53;;;0.63;;
63370;SDS011;49504;48.336;14.472;2023-04-15T11:02:43;2.30;;;0.80;;
63370;SDS011;49504;48.336;14.472;2023-04-15T11:06:06;1.52;;;0.50;;
63370;SDS011;49504;48.336;14.472;2023-04-15T11:09:32;2.65;;;0.80;;
63370;SDS011;49504;48.336;14.472;2023-04-15T11:12:55;3.47;;;0.70;;
63370;SDS011;49504;48.336;14.472;2023-04-15T11:16:18;3.30;;;0.70;;
63370;SDS011;49504;48.336;14.472;2023-04-15T11:19:39;3.40;;;0.60;;
63370;SDS011;49504;48.336;14.472;2023-04-15T11:23:00;2.00;;;0.80;;
63370;SDS011;49504;48.336;14.472;2023-04-15T11:28:59;3.00;;;0.55;;
63370;SDS011;49504;48.336;14.472;2023-04-15T11:32:21;3.83;;;0.68;;
63370;SDS011;49504;48.336;14.472;2023-04-15T11:36:24;4.43;;;0.85;;
63370;SDS011;49504;48.336;14.472;2023-04-15T11:39:46;3.88;;;0.60;;
63370;SDS011;49504;48.336;14.472;2023-04-15T11:43:09;3.15;;;1.00;;
63370;SDS011;49504;48.336;14.472;2023-04-15T11:46:32;2.70;;;0.60;;
63370;SDS011;49504;48.336;14.472;2023-04-15T11:49:53;1.23;;;0.38;;
63370;SDS011;49504;48.336;14.472;2023-04-15T11:53:16;1.92;;;0.52;;
63370;SDS011;49504;48.336;14.472;2023-04-15T11:56:37;2.78;;;0.52;;
63370;SDS011;49504;48.336;14.472;2023-04-15T11:59:58;4.03;;;0.80;;
63370;SDS011;49504;48.336;14.472;2023-04-15T12:03:23;3.88;;;0.60;;
63370;SDS011;49504;48.336;14.472;2023-04-15T12:06:46;2.17;;;0.63;;
63370;SDS011;49504;48.336;14.472;2023-04-15T12:10:09;1.98;;;0.55;;
63370;SDS011;49504;48.336;14.472;2023-04-15T12:13:30;2.72;;;0.60;;
63370;SDS011;49504;48.336;14.472;2023-04-15T12:16:52;1.70;;;0.40;;
63370;SDS011;49504;48.336;14.472;2023-04-15T12:20:19;1.58;;;0.40;;
63370;SDS011;49504;48.336;14.472;2023-04-15T12:23:47;1.45;;;0.40;;
63370;SDS011;49504;48.336;14.472;2023-04-15T12:27:10;1.98;;;0.50;;
63370;SDS011;49504;48.336;14.472;2023-04-15T12:30:34;2.65;;;0.57;;
63370;SDS011;49504;48.336;14.472;2023-04-15T12:33:55;1.80;;;0.50;;
63370;SDS011;49504;48.336;14.472;2023-04-15T12:37:17;1.95;;;0.50;;
63370;SDS011;49504;48.336;14.472;2023-04-15T12:40:38;2.40;;;0.47;;
63370;SDS011;49504;48.336;14.472;2023-04-15T12:44:01;1.83;;;0.50;;
63370;SDS011;49504;48.336;14.472;2023-04-15T12:47:22;2.45;;;0.60;;
63370;SDS011;49504;48.336;14.472;2023-04-15T12:50:43;2.58;;;0.50;;
63370;SDS011;49504;48.336;14.472;2023-04-15T12:54:05;2.33;;;0.80;;
63370;SDS011;49504;48.336;14.472;2023-04-15T12:57:26;1.27;;;0.43;;
63370;SDS011;49504;48.336;14.472;2023-04-15T13:00:49;2.35;;;0.50;;
63370;SDS011;49504;48.336;14.472;2023-04-15T13:04:11;2.05;;;0.63;;
63370;SDS011;49504;48.336;14.472;2023-04-15T13:07:33;1.52;;;0.45;;
63370;SDS011;49504;48.336;14.472;2023-04-15T13:10:54;1.52;;;0.50;;
63370;SDS011;49504;48.336;14.472;2023-04-15T13:14:16;1.83;;;0.60;;
63370;SDS011;49504;48.336;14.472;2023-04-15T13:17:38;2.00;;;0.52;;
63370;SDS011;49504;48.336;14.472;2023-04-15T13:21:00;2.17;;;0.52;;
63370;SDS011;49504;48.336;14.472;2023-04-15T13:24:21;2.10;;;0.60;;
63370;SDS011;49504;48.336;14.472;2023-04-15T13:27:42;2.55;;;0.70;;
63370;SDS011;49504;48.336;14.472;2023-04-15T13:32:28;1.98;;;0.52;;
63370;SDS011;49504;48.336;14.472;2023-04-15T13:35:50;2.40;;;0.50;;
63370;SDS011;49504;48.336;14.472;2023-04-15T13:39:11;2.28;;;0.50;;
63370;SDS011;49504;48.336;14.472;2023-04-15T13:42:32;2.50;;;0.80;;
63370;SDS011;49504;48.336;14.472;2023-04-15T13:45:54;1.95;;;0.50;;
63370;SDS011;49504;48.336;14.472;2023-04-15T13:49:17;2.25;;;0.70;;
63370;SDS011;49504;48.336;14.472;2023-04-15T13:52:38;1.92;;;0.70;;
63370;SDS011;49504;48.336;14.472;2023-04-15T13:56:00;2.10;;;0.60;;
63370;SDS011;49504;48.336;14.472;2023-04-15T13:59:21;1.48;;;0.52;;
63370;SDS011;49504;48.336;14.472;2023-04-15T14:02:42;2.05;;;0.77;;
63370;SDS011;49504;48.336;14.472;2023-04-15T14:06:05;1.85;;;0.40;;
63370;SDS011;49504;48.336;14.472;2023-04-15T14:09:26;2.40;;;0.60;;
63370;SDS011;49504;48.336;14.472;2023-04-15T14:12:47;2.10;;;0.57;;
63370;SDS011;49504;48.336;14.472;2023-04-15T14:16:08;2.15;;;0.70;;
63370;SDS011;49504;48.336;14.472;2023-04-15T14:19:30;1.63;;;0.50;;
63370;SDS011;49504;48.336;14.472;2023-04-15T14:22:53;1.85;;;0.70;;
63370;SDS011;49504;48.336;14.472;2023-04-15T14:26:14;1.80;;;0.60;;
63370;SDS011;49504;48.336;14.472;2023-04-15T14:29:35;3.25;;;0.60;;
63370;SDS011;49504;48.336;14.472;2023-04-15T14:32:57;2.63;;;0.80;;
63370;SDS011;49504;48.336;14.472;2023-04-15T14:36:18;1.70;;;0.60;;
63370;SDS011;49504;48.336;14.472;2023-04-15T14:39:41;2.22;;;0.60;;
63370;SDS011;49504;48.336;14.472;2023-04-15T14:43:02;2.28;;;0.80;;
63370;SDS011;49504;48.336;14.472;2023-04-15T14:46:24;1.40;;;0.50;;
63370;SDS011;49504;48.336;14.472;2023-04-15T14:49:45;1.35;;;0.47;;
63370;SDS011;49504;48.336;14.472;2023-04-15T14:53:58;1.42;;;0.60;;
63370;SDS011;49504;48.336;14.472;2023-04-15T14:57:19;2.17;;;0.60;;
63370;SDS011;49504;48.336;14.472;2023-04-15T15:00:40;1.75;;;0.60;;
63370;SDS011;49504;48.336;14.472;2023-04-15T15:04:02;1.55;;;0.52;;
63370;SDS011;49504;48.336;14.472;2023-04-15T15:07:24;1.75;;;0.50;;
63370;SDS011;49504;48.336;14.472;2023-04-15T15:10:46;2.35;;;0.60;;
63370;SDS011;49504;48.336;14.472;2023-04-15T15:14:07;2.10;;;0.68;;
63370;SDS011;49504;48.336;14.472;2023-04-15T19:43:16;2.20;;;0.83;;
63370;SDS011;49504;48.336;14.472;2023-04-15T19:46:37;2.40;;;0.70;;
63370;SDS011;49504;48.336;14.472;2023-04-15T19:49:59;1.80;;;0.70;;
63370;SDS011;49504;48.336;14.472;2023-04-15T19:54:00;1.67;;;0.60;;
63370;SDS011;49504;48.336;14.472;2023-04-15T19:57:21;3.30;;;0.80;;
63370;SDS011;49504;48.336;14.472;2023-04-15T20:00:43;2.13;;;0.70;;
63370;SDS011;49504;48.336;14.472;2023-04-15T20:07:01;2.60;;;0.73;;
63370;SDS011;49504;48.336;14.472;2023-04-15T20:10:22;2.50;;;0.80;;
63370;SDS011;49504;48.336;14.472;2023-04-15T20:13:43;1.70;;;0.60;;
63370;SDS011;49504;48.336;14.472;2023-04-15T20:17:05;2.00;;;0.63;;
63370;SDS011;49504;48.336;14.472;2023-04-15T20:20:26;1.73;;;0.57;;
63370;SDS011;49504;48.336;14.472;2023-04-15T20:23:49;2.03;;;0.90;;
63370;SDS011;49504;48.336;14.472;2023-04-15T20:27:10;2.55;;;0.88;;
63370;SDS011;49504;48.336;14.472;2023-04-15T20:30:32;1.98;;;0.60;;
63370;SDS011;49504;48.336;14.472;2023-04-15T20:33:53;1.58;;;0.45;;
63370;SDS011;49504;48.336;14.472;2023-04-15T20:37:14;1.90;;;0.60;;
63370;SDS011;49504;48.336;14.472;2023-04-15T20:40:37;1.98;;;0.60;;
63370;SDS011;49504;48.336;14.472;2023-04-15T20:43:59;2.08;;;0.63;;
63370;SDS011;49504;48.336;14.472;2023-04-15T20:47:20;1.52;;;0.60;;
63370;SDS011;49504;48.336;14.472;2023-04-15T20:50:41;2.30;;;0.63;;
63370;SDS011;49504;48.336;14.472;2023-04-15T20:54:02;2.15;;;0.60;;
63370;SDS011;49504;48.336;14.472;2023-04-15T20:57:25;2.50;;;0.75;;
63370;SDS011;49504;48.336;14.472;2023-04-15T21:00:46;2.80;;;0.80;;
63370;SDS011;49504;48.336;14.472;2023-04-15T21:04:08;1.90;;;0.60;;
63370;SDS011;49504;48.336;14.472;2023-04-15T21:07:29;2.38;;;0.60;;
63370;SDS011;49504;48.336;14.472;2023-04-15T21:10:50;2.00;;;0.70;;
63370;SDS011;49504;48.336;14.472;2023-04-15T21:14:13;2.30;;;0.90;;
63370;SDS011;49504;48.336;14.472;2023-04-15T21:17:34;1.85;;;0.70;;
63370;SDS011;49504;48.336;14.472;2023-04-15T21:20:55;2.60;;;0.80;;
63370;SDS011;49504;48.336;14.472;2023-04-15T21:24:16;2.63;;;0.85;;
63370;SDS011;49504;48.336;14.472;2023-04-15T21:27:37;13.93;;;1.67;;
63370;SDS011;49504;48.336;14.472;2023-04-15T21:31:00;3.97;;;1.13;;
63370;SDS011;49504;48.336;14.472;2023-04-15T21:34:21;3.70;;;1.00;;
63370;SDS011;49504;48.336;14.472;2023-04-15T21:39:29;2.55;;;0.80;;
63370;SDS011;49504;48.336;14.472;2023-04-15T21:42:51;2.00;;;0.65;;
63370;SDS011;49504;48.336;14.472;2023-04-15T21:46:12;2.45;;;0.85;;
63370;SDS011;49504;48.336;14.472;2023-04-15T21:49:33;3.10;;;0.90;;
63370;SDS011;49504;48.336;14.472;2023-04-15T21:52:54;2.80;;;0.98;;
63370;SDS011;49504;48.336;14.472;2023-04-15T21:56:17;2.90;;;0.90;;
63370;SDS011;49504;48.336;14.472;2023-04-15T21:59:38;2.80;;;1.10;;
63370;SDS011;49504;48.336;14.472;2023-04-15T22:02:59;3.47;;;1.02;;
63370;SDS011;49504;48.336;14.472;2023-04-15T22:06:20;3.30;;;1.10;;
63370;SDS011;49504;48.336;14.472;2023-04-15T22:09:41;4.05;;;1.02;;
63370;SDS011;49504;48.336;14.472;2023-04-15T22:13:04;3.10;;;0.95;;
63370;SDS011;49504;48.336;14.472;2023-04-15T22:16:25;2.92;;;0.90;;
63370;SDS011;49504;48.336;14.472;2023-04-15T22:19:46;2.65;;;0.80;;
63370;SDS011;49504;48.336;14.472;2023-04-15T22:24:38;2.67;;;0.98;;
63370;SDS011;49504;48.336;14.472;2023-04-15T22:27:59;2.10;;;0.73;;
63370;SDS011;49504;48.336;14.472;2023-04-15T22:31:20;3.97;;;1.05;;
63370;SDS011;49504;48.336;14.472;2023-04-15T22:34:41;3.17;;;1.05;;
63370;SDS011;49504;48.336;14.472;2023-04-15T22:40:59;3.00;;;1.00;;
63370;SDS011;49504;48.336;14.472;2023-04-15T22:44:20;2.75;;;0.90;;
63370;SDS011;49504;48.336;14.472;2023-04-15T22:51:09;3.20;;;0.95;;
63370;SDS011;49504;48.336;14.472;2023-04-15T22:54:30;2.95;;;1.10;;
63370;SDS011;49504;48.336;14.472;2023-04-15T22:57:51;3.22;;;1.20;;
63370;SDS011;49504;48.336;14.472;2023-04-15T23:03:02;2.35;;;0.80;;
63370;SDS011;49504;48.336;14.472;2023-04-15T23:09:18;2.95;;;1.20;;
63370;SDS011;49504;48.336;14.472;2023-04-15T23:12:39;3.85;;;1.40;;
63370;SDS011;49504;48.336;14.472;2023-04-15T23:16:00;3.22;;;1.00;;
63370;SDS011;49504;48.336;14.472;2023-04-15T23:19:21;2.60;;;0.82;;
63370;SDS011;49504;48.336;14.472;2023-04-15T23:22:42;3.17;;;0.90;;
63370;SDS011;49504;48.336;14.472;2023-04-15T23:26:05;2.85;;;1.00;;
63370;SDS011;49504;48.336;14.472;2023-04-15T23:29:26;3.67;;;1.20;;
63370;SDS011;49504;48.336;14.472;2023-04-15T23:32:47;2.60;;;1.00;;
63370;SDS011;49504;48.336;14.472;2023-04-15T23:36:09;2.20;;;0.90;;
63370;SDS011;49504;48.336;14.472;2023-04-15T23:39:30;2.60;;;1.08;;
63370;SDS011;49504;48.336;14.472;2023-04-15T23:42:52;2.63;;;1.15;;
63370;SDS011;49504;48.336;14.472;2023-04-15T23:46:13;3.70;;;0.93;;
63370;SDS011;49504;48.336;14.472;2023-04-15T23:49:34;2.80;;;1.00;;
63370;SDS011;49504;48.336;14.472;2023-04-15T23:52:55;2.33;;;0.98;;
63370;SDS011;49504;48.336;14.472;2023-04-15T23:56:16;2.90;;;1.20;;
63370;SDS011;49504;48.336;14.472;2023-04-15T23:59:39;3.15;;;0.90;;
